Time;durP1;ratioP1;P1;durP2;ratioP2;P2;SDS_P1;SDS_P2;PMS_P1;PMS_P2;Temp;Humidity;BMP_temperature;BMP_pressure;BME280_temperature;BME280_humidity;BME280_pressure;Samples;Min_cycle;Max_cycle;Signal;HPM_P1;HPM_P2
2021/10/30 00:02:03;;;;;;;;;23.75;18.75;;;;;-143.93;100.00;62969.28;5017174;28;45442;-71
2021/10/30 00:04:29;;;;;;;;;16.00;14.50;;;;;-143.93;100.00;62969.28;5015532;28;45545;-71
2021/10/30 00:06:55;;;;;;;;;21.00;18.25;;;;;-143.93;100.00;62969.28;5016154;28;46450;-72
2021/10/30 00:09:22;;;;;;;;;22.50;17.25;;;;;-143.93;100.00;62969.28;5019143;28;45364;-71
2021/10/30 00:11:47;;;;;;;;;16.25;13.75;;;;;-143.93;100.00;62969.28;5016022;28;45300;-71
2021/10/30 00:14:12;;;;;;;;;19.50;15.50;;;;;-143.93;100.00;62969.28;5017324;28;47934;-71
2021/10/30 00:16:38;;;;;;;;;15.75;15.00;;;;;-143.93;100.00;62969.28;5021912;28;46700;-71
2021/10/30 00:19:03;;;;;;;;;22.00;16.50;;;;;-143.93;100.00;62969.28;5017221;28;45416;-72
2021/10/30 00:21:29;;;;;;;;;24.75;20.25;;;;;-143.93;100.00;62969.28;5013921;28;45412;-71
2021/10/30 00:23:55;;;;;;;;;22.50;18.00;;;;;-143.93;100.00;62969.28;5022705;28;45527;-71
2021/10/30 00:26:20;;;;;;;;;19.25;17.75;;;;;-143.93;100.00;62969.28;5014787;28;45447;-71
2021/10/30 00:28:46;;;;;;;;;18.75;15.75;;;;;-143.93;100.00;62969.28;5014158;28;45550;-71
2021/10/30 00:31:11;;;;;;;;;17.00;15.50;;;;;-143.93;100.00;62969.28;5014892;28;45460;-71
2021/10/30 00:33:38;;;;;;;;;19.25;15.50;;;;;-143.93;100.00;62969.28;5007597;28;45493;-72
2021/10/30 00:36:03;;;;;;;;;18.50;16.00;;;;;-143.93;100.00;62969.28;5011793;28;46289;-71
2021/10/30 00:38:29;;;;;;;;;19.75;17.00;;;;;-143.93;100.00;62969.28;5015531;28;45391;-71
2021/10/30 00:40:54;;;;;;;;;14.00;14.00;;;;;-143.93;100.00;62969.28;5013779;28;45444;-72
2021/10/30 00:43:20;;;;;;;;;16.00;10.00;;;;;-143.93;100.00;62969.28;5016729;28;45490;-71
2021/10/30 00:45:46;;;;;;;;;16.50;13.25;;;;;-143.93;100.00;62969.28;5015398;28;46257;-71
2021/10/30 00:48:12;;;;;;;;;14.00;14.00;;;;;-143.93;100.00;62969.28;5026274;28;45408;-71
2021/10/30 00:50:38;;;;;;;;;15.75;15.25;;;;;-143.93;100.00;62969.28;5015626;28;45428;-71
2021/10/30 00:53:04;;;;;;;;;20.25;14.00;;;;;-143.93;100.00;62969.28;5016255;28;45466;-71
2021/10/30 00:55:30;;;;;;;;;16.25;14.00;;;;;-143.93;100.00;62969.28;5017578;28;46036;-71
2021/10/30 00:57:59;;;;;;;;;23.50;17.50;;;;;-143.93;100.00;62969.28;5015240;28;45491;-72
2021/10/30 01:00:25;;;;;;;;;15.75;14.50;;;;;-143.93;100.00;62969.28;5015981;28;45422;-71
2021/10/30 01:02:51;;;;;;;;;14.75;13.25;;;;;-143.93;100.00;62969.28;5015950;28;45666;-71
2021/10/30 01:05:17;;;;;;;;;12.00;11.75;;;;;-143.93;100.00;62969.28;5016648;28;46340;-71
2021/10/30 01:07:43;;;;;;;;;14.00;13.50;;;;;-143.93;100.00;62969.28;4997120;28;45803;-71
2021/10/30 01:10:08;;;;;;;;;13.50;12.25;;;;;-143.93;100.00;62969.28;5020158;28;45404;-71
2021/10/30 01:12:34;;;;;;;;;16.00;14.00;;;;;-143.93;100.00;62969.28;5015479;28;45729;-71
2021/10/30 01:15:01;;;;;;;;;12.00;12.00;;;;;-143.93;100.00;62969.28;5015752;28;45276;-71
2021/10/30 01:17:27;;;;;;;;;15.50;10.75;;;;;-143.93;100.00;62969.28;5013884;28;45790;-71
2021/10/30 01:19:54;;;;;;;;;12.50;10.00;;;;;-143.93;100.00;62969.28;5014291;28;45892;-71
2021/10/30 01:22:21;;;;;;;;;12.75;9.25;;;;;-143.93;100.00;62969.28;5014845;28;45410;-71
2021/10/30 01:24:47;;;;;;;;;11.75;10.50;;;;;-143.93;100.00;62969.28;5014683;28;47262;-71
2021/10/30 01:27:15;;;;;;;;;11.50;10.25;;;;;-143.93;100.00;62969.28;5015183;28;45526;-71
2021/10/30 01:29:40;;;;;;;;;9.00;9.00;;;;;-143.93;100.00;62969.28;5014754;28;45461;-71
2021/10/30 01:32:06;;;;;;;;;8.00;6.50;;;;;-143.93;100.00;62969.28;5013451;28;49703;-71
2021/10/30 01:34:31;;;;;;;;;15.00;12.50;;;;;-143.93;100.00;62969.28;5015455;28;46886;-71
2021/10/30 01:36:57;;;;;;;;;13.00;13.00;;;;;-143.93;100.00;62969.28;5014710;28;45554;-71
2021/10/30 01:39:26;;;;;;;;;15.75;14.00;;;;;-143.93;100.00;62969.28;5014943;28;45681;-71
2021/10/30 01:41:53;;;;;;;;;15.00;12.00;;;;;-143.93;100.00;62969.28;5014354;28;45585;-71
2021/10/30 01:44:18;;;;;;;;;15.00;13.75;;;;;-143.93;100.00;62969.28;5013787;28;45423;-71
2021/10/30 01:46:43;;;;;;;;;15.00;13.50;;;;;-143.93;100.00;62969.28;5022048;28;45326;-71
2021/10/30 01:49:09;;;;;;;;;14.50;14.50;;;;;-143.93;100.00;62969.28;5017479;28;47441;-71
2021/10/30 01:51:34;;;;;;;;;13.25;12.00;;;;;-143.93;100.00;62969.28;5014257;28;45543;-71
2021/10/30 01:54:00;;;;;;;;;13.00;12.50;;;;;-143.93;100.00;62969.28;5017306;28;46251;-71
2021/10/30 01:56:26;;;;;;;;;16.25;15.25;;;;;-143.93;100.00;62969.28;5015892;28;45560;-72
2021/10/30 01:58:52;;;;;;;;;17.25;15.50;;;;;-143.93;100.00;62969.28;5016249;28;45477;-71
2021/10/30 02:01:17;;;;;;;;;15.00;12.25;;;;;-143.93;100.00;62969.28;5014620;28;45585;-71
2021/10/30 02:03:42;;;;;;;;;14.25;14.00;;;;;-143.93;100.00;62969.28;5018191;28;46323;-72
2021/10/30 02:06:08;;;;;;;;;14.00;11.00;;;;;-143.93;100.00;62969.28;5014369;28;45795;-72
2021/10/30 02:08:34;;;;;;;;;15.25;12.00;;;;;-143.93;100.00;62969.28;5003562;28;45548;-71
2021/10/30 02:11:00;;;;;;;;;12.25;12.00;;;;;-143.93;100.00;62969.28;5017276;28;45447;-71
2021/10/30 02:13:26;;;;;;;;;14.75;10.25;;;;;-143.93;100.00;62969.28;5001931;28;45575;-71
2021/10/30 02:15:52;;;;;;;;;12.00;12.00;;;;;-143.93;100.00;62969.28;5015448;28;45861;-72
2021/10/30 02:18:18;;;;;;;;;13.75;10.75;;;;;-143.93;100.00;62969.28;5016022;28;45490;-73
2021/10/30 02:20:43;;;;;;;;;12.00;11.00;;;;;-143.93;100.00;62969.28;5013596;28;45511;-72
2021/10/30 02:23:09;;;;;;;;;13.25;11.50;;;;;-143.93;100.00;62969.28;5013870;28;46817;-72
2021/10/30 02:25:34;;;;;;;;;11.50;11.50;;;;;-143.93;100.00;62969.28;5013666;28;45504;-71
2021/10/30 02:28:00;;;;;;;;;13.00;11.00;;;;;-143.93;100.00;62969.28;5013892;28;45400;-72
2021/10/30 02:30:26;;;;;;;;;24.75;21.00;;;;;-143.93;100.00;62969.28;5014005;28;45550;-72
2021/10/30 02:32:52;;;;;;;;;16.75;14.00;;;;;-143.93;100.00;62969.28;5014424;28;45505;-72
2021/10/30 02:35:17;;;;;;;;;20.00;14.75;;;;;-143.93;100.00;62969.28;5015194;28;45878;-72
2021/10/30 02:37:43;;;;;;;;;25.50;17.75;;;;;-143.93;100.00;62969.28;5016549;28;45824;-72
2021/10/30 02:40:09;;;;;;;;;18.50;15.75;;;;;-143.93;100.00;62969.28;5013433;28;45443;-71
2021/10/30 02:42:34;;;;;;;;;19.25;17.50;;;;;-143.93;100.00;62969.28;5021049;28;45629;-72
2021/10/30 02:45:00;;;;;;;;;16.50;14.50;;;;;-143.93;100.00;62969.28;5012881;28;45436;-70
2021/10/30 02:47:26;;;;;;;;;18.25;12.75;;;;;-143.93;100.00;62969.28;5016794;28;45591;-72
2021/10/30 02:49:52;;;;;;;;;12.00;10.25;;;;;-143.93;100.00;62969.28;5014833;28;45432;-71
2021/10/30 02:52:17;;;;;;;;;17.25;13.00;;;;;-143.93;100.00;62969.28;5018416;28;45384;-72
2021/10/30 02:54:43;;;;;;;;;16.50;15.50;;;;;-143.93;100.00;62969.28;5013242;28;45399;-70
2021/10/30 02:57:08;;;;;;;;;15.00;12.00;;;;;-143.93;100.00;62969.28;5016184;28;49537;-70
2021/10/30 02:59:33;;;;;;;;;17.50;14.25;;;;;-143.93;100.00;62969.28;5018110;28;45534;-71
2021/10/30 03:01:59;;;;;;;;;13.50;13.00;;;;;-143.93;100.00;62969.28;5014422;28;45439;-70
2021/10/30 03:04:24;;;;;;;;;13.75;12.00;;;;;-143.93;100.00;62969.28;5012410;28;45345;-73
2021/10/30 03:06:50;;;;;;;;;11.75;11.50;;;;;-143.93;100.00;62969.28;5014628;28;45539;-73
2021/10/30 03:09:15;;;;;;;;;13.75;13.75;;;;;-143.93;100.00;62969.28;5026588;28;45384;-72
2021/10/30 03:11:41;;;;;;;;;13.50;10.50;;;;;-143.93;100.00;62969.28;5016689;28;46346;-72
2021/10/30 03:14:06;;;;;;;;;13.00;12.75;;;;;-143.93;100.00;62969.28;5019114;28;45384;-72
2021/10/30 03:16:32;;;;;;;;;16.00;13.00;;;;;-143.93;100.00;62969.28;5022140;28;45667;-72
2021/10/30 03:18:57;;;;;;;;;17.00;12.00;;;;;-143.93;100.00;62969.28;5016863;28;45471;-72
2021/10/30 03:21:23;;;;;;;;;13.25;10.25;;;;;-143.93;100.00;62969.28;5018771;28;46336;-72
2021/10/30 03:23:49;;;;;;;;;14.25;13.50;;;;;-143.93;100.00;62969.28;5019952;28;45825;-72
2021/10/30 03:26:14;;;;;;;;;14.25;12.00;;;;;-143.93;100.00;62969.28;5018256;28;45648;-72
2021/10/30 03:28:39;;;;;;;;;13.00;10.75;;;;;-143.93;100.00;62969.28;5017744;28;45634;-71
2021/10/30 03:31:05;;;;;;;;;11.00;9.00;;;;;-143.93;100.00;62969.28;5017185;28;45518;-71
2021/10/30 03:33:31;;;;;;;;;13.75;10.00;;;;;-143.93;100.00;62969.28;5023256;28;45436;-71
2021/10/30 03:35:56;;;;;;;;;11.00;10.75;;;;;-143.93;100.00;62969.28;5018236;28;45701;-71
2021/10/30 03:38:22;;;;;;;;;13.25;11.00;;;;;-143.93;100.00;62969.28;5016148;28;45778;-71
2021/10/30 03:40:47;;;;;;;;;12.50;9.50;;;;;-143.93;100.00;62969.28;5016302;28;46468;-71
2021/10/30 03:43:12;;;;;;;;;12.25;10.25;;;;;-143.93;100.00;62969.28;5015987;28;45483;-71
2021/10/30 03:45:38;;;;;;;;;13.00;10.75;;;;;-143.93;100.00;62969.28;5016319;28;46037;-71
2021/10/30 03:48:04;;;;;;;;;12.75;11.00;;;;;-143.93;100.00;62969.28;5017358;28;45503;-71
2021/10/30 03:50:30;;;;;;;;;13.00;11.50;;;;;-143.93;100.00;62969.28;5016077;28;47111;-71
2021/10/30 03:52:55;;;;;;;;;15.00;12.00;;;;;-143.93;100.00;62969.28;5016065;28;45428;-71
2021/10/30 03:55:20;;;;;;;;;8.50;8.50;;;;;-143.93;100.00;62969.28;5016201;28;45895;-71
2021/10/30 03:57:45;;;;;;;;;10.00;9.25;;;;;-143.93;100.00;62969.28;5015923;28;45487;-71
2021/10/30 04:00:11;;;;;;;;;15.25;12.50;;;;;-143.93;100.00;62969.28;5016432;28;46121;-72
2021/10/30 04:02:37;;;;;;;;;12.00;10.50;;;;;-143.93;100.00;62969.28;5016051;28;46359;-71
2021/10/30 04:05:03;;;;;;;;;14.50;11.50;;;;;-143.93;100.00;62969.28;5018922;28;45416;-71
2021/10/30 04:07:28;;;;;;;;;10.75;10.25;;;;;-143.93;100.00;62969.28;5015674;28;45536;-71
2021/10/30 04:09:53;;;;;;;;;13.00;8.25;;;;;-143.93;100.00;62969.28;5015327;28;47199;-71
2021/10/30 04:12:19;;;;;;;;;12.50;11.25;;;;;-143.93;100.00;62969.28;5016085;28;47445;-71
2021/10/30 04:14:44;;;;;;;;;10.75;10.75;;;;;-143.93;100.00;62969.28;5016693;28;45803;-71
2021/10/30 04:17:09;;;;;;;;;12.00;7.75;;;;;-143.93;100.00;62969.28;5015912;28;45473;-71
2021/10/30 04:19:35;;;;;;;;;12.25;10.25;;;;;-143.93;100.00;62969.28;5011633;28;46402;-71
2021/10/30 04:22:01;;;;;;;;;11.75;10.50;;;;;-143.93;100.00;62969.28;5014855;28;45550;-71
2021/10/30 04:24:26;;;;;;;;;14.00;7.50;;;;;-143.93;100.00;62969.28;5018467;28;48070;-70
2021/10/30 04:26:51;;;;;;;;;7.75;7.00;;;;;-143.93;100.00;62969.28;5016595;28;45443;-72
2021/10/30 04:29:17;;;;;;;;;10.25;8.00;;;;;-143.93;100.00;62969.28;5015130;28;46054;-72
2021/10/30 04:31:43;;;;;;;;;8.25;8.25;;;;;-143.93;100.00;62969.28;5017182;28;46755;-72
2021/10/30 04:34:17;;;;;;;;;12.00;8.75;;;;;-143.93;100.00;62969.28;5028690;28;45435;-71
2021/10/30 04:36:43;;;;;;;;;10.25;9.75;;;;;-143.93;100.00;62969.28;5018194;28;45499;-72
2021/10/30 04:39:09;;;;;;;;;8.75;7.75;;;;;-143.93;100.00;62969.28;5019461;28;45451;-72
2021/10/30 04:41:38;;;;;;;;;7.25;7.00;;;;;-143.93;100.00;62969.28;5023064;28;45494;-72
2021/10/30 04:44:04;;;;;;;;;8.25;7.50;;;;;-143.93;100.00;62969.28;5023890;28;45487;-70
2021/10/30 04:46:29;;;;;;;;;7.25;7.25;;;;;-143.93;100.00;62969.28;5015572;28;45793;-71
2021/10/30 04:48:54;;;;;;;;;12.25;8.50;;;;;-143.93;100.00;62969.28;5014823;28;46302;-72
2021/10/30 04:51:20;;;;;;;;;13.75;12.00;;;;;-143.93;100.00;62969.28;5015941;28;45392;-72
2021/10/30 04:53:45;;;;;;;;;7.50;7.50;;;;;-143.93;100.00;62969.28;5016528;28;45721;-72
2021/10/30 04:56:11;;;;;;;;;13.50;7.75;;;;;-143.93;100.00;62969.28;5017808;28;45433;-72
2021/10/30 04:58:43;;;;;;;;;8.75;8.00;;;;;-143.93;100.00;62969.28;4997075;28;47949;-72
2021/10/30 05:01:09;;;;;;;;;10.75;7.00;;;;;-143.93;100.00;62969.28;5015504;28;45403;-72
2021/10/30 05:03:34;;;;;;;;;6.50;6.00;;;;;-143.93;100.00;62969.28;5015400;28;45487;-72
2021/10/30 05:06:00;;;;;;;;;10.00;10.00;;;;;-143.93;100.00;62969.28;5015758;28;49973;-72
2021/10/30 05:08:25;;;;;;;;;8.75;8.75;;;;;-143.93;100.00;62969.28;5013062;28;51823;-72
2021/10/30 05:10:50;;;;;;;;;12.50;7.00;;;;;-143.93;100.00;62969.28;5017690;28;45398;-72
2021/10/30 05:13:16;;;;;;;;;11.00;7.75;;;;;-143.93;100.00;62969.28;5015175;28;45300;-72
2021/10/30 05:15:41;;;;;;;;;10.75;8.75;;;;;-143.93;100.00;62969.28;5015536;28;45448;-72
2021/10/30 05:18:06;;;;;;;;;8.00;7.50;;;;;-143.93;100.00;62969.28;5015881;28;45786;-72
2021/10/30 05:20:32;;;;;;;;;9.50;8.00;;;;;-143.93;100.00;62969.28;5019836;28;45460;-72
2021/10/30 05:22:57;;;;;;;;;11.00;10.25;;;;;-143.93;100.00;62969.28;5019689;28;59089;-72
2021/10/30 05:25:23;;;;;;;;;8.00;7.50;;;;;-143.93;100.00;62969.28;5022842;28;47849;-72
2021/10/30 05:27:49;;;;;;;;;7.75;6.25;;;;;-143.93;100.00;62969.28;5019405;28;46168;-73
2021/10/30 05:30:15;;;;;;;;;7.50;7.50;;;;;-143.93;100.00;62969.28;5014816;28;45579;-73
2021/10/30 05:32:40;;;;;;;;;5.75;5.00;;;;;-143.93;100.00;62969.28;5014475;28;45490;-72
2021/10/30 05:35:06;;;;;;;;;12.25;6.00;;;;;-143.93;100.00;62969.28;5014542;28;45373;-72
2021/10/30 05:37:31;;;;;;;;;6.00;6.00;;;;;-143.93;100.00;62969.28;5020136;28;45464;-72
2021/10/30 05:39:57;;;;;;;;;5.50;5.50;;;;;-143.93;100.00;62969.28;5013961;28;45443;-72
2021/10/30 05:42:22;;;;;;;;;8.00;6.75;;;;;-143.93;100.00;62969.28;5014994;28;45520;-72
2021/10/30 05:44:48;;;;;;;;;7.50;7.00;;;;;-143.93;100.00;62969.28;5015527;28;45405;-72
2021/10/30 05:47:14;;;;;;;;;7.50;7.50;;;;;-143.93;100.00;62969.28;5019325;28;46396;-72
2021/10/30 05:49:41;;;;;;;;;10.00;9.50;;;;;-143.93;100.00;62969.28;5015895;28;45651;-73
2021/10/30 05:52:07;;;;;;;;;7.75;5.50;;;;;-143.93;100.00;62969.28;5016074;28;45554;-72
2021/10/30 05:54:34;;;;;;;;;6.75;6.00;;;;;-143.93;100.00;62969.28;5024869;28;45500;-72
2021/10/30 05:57:00;;;;;;;;;3.50;3.00;;;;;-143.93;100.00;62969.28;5018830;28;47330;-72
2021/10/30 05:59:27;;;;;;;;;6.00;6.00;;;;;-143.93;100.00;62969.28;5013343;28;45472;-72
2021/10/30 06:01:52;;;;;;;;;10.75;7.00;;;;;-143.93;100.00;62969.28;5015335;28;45515;-72
2021/10/30 06:04:17;;;;;;;;;6.50;4.50;;;;;-143.93;100.00;62969.28;5023228;28;45519;-72
2021/10/30 06:06:43;;;;;;;;;6.50;5.25;;;;;-143.93;100.00;62969.28;5013650;28;46469;-72
2021/10/30 06:09:08;;;;;;;;;7.00;6.25;;;;;-143.93;100.00;62969.28;5014218;28;45489;-72
2021/10/30 06:11:34;;;;;;;;;7.50;7.50;;;;;-143.93;100.00;62969.28;5013663;28;45519;-72
2021/10/30 06:13:59;;;;;;;;;6.00;6.00;;;;;-143.93;100.00;62969.28;5015362;28;45478;-72
2021/10/30 06:16:26;;;;;;;;;8.25;6.00;;;;;-143.93;100.00;62969.28;5014924;28;45608;-72
2021/10/30 06:18:52;;;;;;;;;6.50;5.75;;;;;-143.93;100.00;62969.28;5015812;28;45528;-72
2021/10/30 06:21:18;;;;;;;;;5.50;3.00;;;;;-143.93;100.00;62969.28;5015063;28;45506;-72
2021/10/30 06:23:44;;;;;;;;;6.00;6.00;;;;;-143.93;100.00;62969.28;5021787;28;46669;-72
2021/10/30 06:26:09;;;;;;;;;5.00;5.00;;;;;-143.93;100.00;62969.28;5018988;28;47184;-73
2021/10/30 06:28:35;;;;;;;;;6.50;6.50;;;;;-143.93;100.00;62969.28;5013800;28;47214;-72
2021/10/30 06:31:01;;;;;;;;;5.25;5.00;;;;;-143.93;100.00;62969.28;5026821;28;45499;-72
2021/10/30 06:33:26;;;;;;;;;7.25;6.75;;;;;-143.93;100.00;62969.28;5014487;28;45325;-72
2021/10/30 06:35:51;;;;;;;;;6.00;6.00;;;;;-143.93;100.00;62969.28;5012850;28;58125;-72
2021/10/30 06:38:17;;;;;;;;;6.00;6.00;;;;;-143.93;100.00;62969.28;5013421;28;47529;-73
2021/10/30 06:40:42;;;;;;;;;6.75;5.75;;;;;-143.93;100.00;62969.28;5014140;28;45415;-72
2021/10/30 06:43:07;;;;;;;;;4.50;4.00;;;;;-143.93;100.00;62969.28;5022153;28;50579;-72
2021/10/30 06:45:33;;;;;;;;;4.00;4.00;;;;;-143.93;100.00;62969.28;5020675;28;46893;-72
2021/10/30 06:47:58;;;;;;;;;6.25;5.00;;;;;-143.93;100.00;62969.28;5020561;28;45485;-75
2021/10/30 06:50:24;;;;;;;;;6.50;6.00;;;;;-143.93;100.00;62969.28;5020386;28;49679;-74
2021/10/30 06:52:52;;;;;;;;;7.75;3.50;;;;;-143.93;100.00;62969.28;5017479;28;45478;-73
2021/10/30 06:55:19;;;;;;;;;6.25;4.25;;;;;-143.93;100.00;62969.28;5017087;28;45689;-74
2021/10/30 06:57:46;;;;;;;;;5.75;4.75;;;;;-143.93;100.00;62969.28;5015575;28;45409;-74
2021/10/30 07:00:12;;;;;;;;;3.50;3.50;;;;;-143.93;100.00;62969.28;5016871;28;45531;-74
2021/10/30 07:02:38;;;;;;;;;5.75;4.25;;;;;-143.93;100.00;62969.28;5016591;28;45510;-73
2021/10/30 07:05:04;;;;;;;;;4.25;4.00;;;;;-143.93;100.00;62969.28;5016279;28;47127;-73
2021/10/30 07:07:29;;;;;;;;;6.75;4.50;;;;;-143.93;100.00;62969.28;5016630;28;45867;-73
2021/10/30 07:09:59;;;;;;;;;8.00;6.00;;;;;-143.93;100.00;62969.28;5004187;28;45496;-73
2021/10/30 07:12:29;;;;;;;;;5.00;5.00;;;;;-143.93;100.00;62969.28;5017553;28;45734;-73
2021/10/30 07:14:54;;;;;;;;;8.25;4.50;;;;;-143.93;100.00;62969.28;5016693;28;45447;-73
2021/10/30 07:17:20;;;;;;;;;7.50;5.00;;;;;-143.93;100.00;62969.28;5015893;28;45994;-72
2021/10/30 07:19:46;;;;;;;;;6.25;6.00;;;;;-143.93;100.00;62969.28;5018348;28;45674;-73
2021/10/30 07:22:11;;;;;;;;;9.50;5.75;;;;;-143.93;100.00;62969.28;5030926;28;45540;-73
2021/10/30 07:24:36;;;;;;;;;7.25;6.25;;;;;-143.93;100.00;62969.28;5016797;28;45708;-74
2021/10/30 07:27:02;;;;;;;;;7.00;7.00;;;;;-143.93;100.00;62969.28;5016710;28;46861;-73
2021/10/30 07:29:27;;;;;;;;;6.00;6.00;;;;;-143.93;100.00;62969.28;5017466;28;45439;-73
2021/10/30 07:31:53;;;;;;;;;8.00;6.50;;;;;-143.93;100.00;62969.28;5017446;28;45494;-74
2021/10/30 07:34:18;;;;;;;;;6.75;6.25;;;;;-143.93;100.00;62969.28;5013827;28;56143;-73
2021/10/30 07:36:43;;;;;;;;;8.50;6.00;;;;;-143.93;100.00;62969.28;5026145;28;55269;-73
2021/10/30 07:39:09;;;;;;;;;6.75;5.75;;;;;-143.93;100.00;62969.28;5016447;28;53866;-73
2021/10/30 07:41:34;;;;;;;;;35.00;32.25;;;;;-143.93;100.00;62969.28;5012709;28;48544;-74
2021/10/30 07:43:59;;;;;;;;;5.75;5.75;;;;;-143.93;100.00;62969.28;5014210;28;48568;-71
2021/10/30 07:46:25;;;;;;;;;5.50;5.50;;;;;-143.93;100.00;62969.28;5012933;28;45722;-72
2021/10/30 07:48:52;;;;;;;;;8.00;4.00;;;;;-143.93;100.00;62969.28;5013334;28;45533;-71
2021/10/30 07:51:18;;;;;;;;;4.50;3.25;;;;;-143.93;100.00;62969.28;5019393;28;45428;-72
2021/10/30 07:53:44;;;;;;;;;6.75;6.00;;;;;-143.93;100.00;62969.28;5015358;28;46480;-70
2021/10/30 07:56:09;;;;;;;;;7.25;4.50;;;;;-143.93;100.00;62969.28;5002260;28;45527;-72
2021/10/30 07:58:35;;;;;;;;;9.50;7.25;;;;;-143.93;100.00;62969.28;5020130;28;45818;-70
2021/10/30 08:01:00;;;;;;;;;9.00;8.00;;;;;-143.93;100.00;62969.28;5006654;28;45546;-71
2021/10/30 08:03:25;;;;;;;;;6.75;6.75;;;;;-143.93;100.00;62969.28;5013123;28;46134;-70
2021/10/30 08:05:51;;;;;;;;;5.00;5.00;;;;;-143.93;100.00;62969.28;5016571;28;45561;-71
2021/10/30 08:08:16;;;;;;;;;4.50;4.25;;;;;-143.93;100.00;62969.28;5017276;28;45467;-72
2021/10/30 08:10:41;;;;;;;;;4.25;4.25;;;;;-143.93;100.00;62969.28;5012414;28;45723;-70
2021/10/30 08:13:11;;;;;;;;;7.75;6.00;;;;;-143.93;100.00;62969.28;5000410;28;46221;-71
2021/10/30 08:15:37;;;;;;;;;4.00;4.00;;;;;-143.93;100.00;62969.28;5019164;28;46661;-71
2021/10/30 08:18:03;;;;;;;;;5.75;4.00;;;;;-143.93;100.00;62969.28;5011708;28;45574;-70
2021/10/30 08:20:28;;;;;;;;;6.00;4.50;;;;;-143.93;100.00;62969.28;5016461;28;45471;-72
2021/10/30 08:22:54;;;;;;;;;5.00;5.00;;;;;-143.93;100.00;62969.28;5016951;28;46120;-71
2021/10/30 08:25:19;;;;;;;;;4.00;4.00;;;;;-143.93;100.00;62969.28;5012774;28;45589;-70
2021/10/30 08:27:45;;;;;;;;;4.25;4.00;;;;;-143.93;100.00;62969.28;5018175;28;45362;-71
2021/10/30 08:30:10;;;;;;;;;5.00;4.00;;;;;-143.93;100.00;62969.28;5019219;28;45597;-71
2021/10/30 08:32:36;;;;;;;;;4.25;4.00;;;;;-143.93;100.00;62969.28;5016526;28;45527;-71
2021/10/30 08:35:02;;;;;;;;;4.00;4.00;;;;;-143.93;100.00;62969.28;5014710;28;45947;-71
2021/10/30 08:37:28;;;;;;;;;4.00;4.00;;;;;-143.93;100.00;62969.28;5011914;28;45674;-73
2021/10/30 08:39:53;;;;;;;;;11.25;10.75;;;;;-143.93;100.00;62969.28;5001673;28;46272;-72
2021/10/30 08:42:21;;;;;;;;;6.25;4.00;;;;;-143.93;100.00;62969.28;5014297;28;46634;-72
2021/10/30 08:44:49;;;;;;;;;5.00;4.00;;;;;-143.93;100.00;62969.28;5017865;28;45859;-73
2021/10/30 08:47:17;;;;;;;;;3.25;3.00;;;;;-143.93;100.00;62969.28;5011629;28;46926;-72
2021/10/30 08:49:43;;;;;;;;;5.00;3.75;;;;;-143.93;100.00;62969.28;5017456;28;45518;-72
2021/10/30 08:52:09;;;;;;;;;4.25;4.00;;;;;-143.93;100.00;62969.28;5016867;28;46281;-72
2021/10/30 08:54:34;;;;;;;;;4.00;4.00;;;;;-143.93;100.00;62969.28;5019283;28;47947;-71
2021/10/30 08:57:00;;;;;;;;;3.75;3.75;;;;;-143.93;100.00;62969.28;5016452;28;45515;-71
2021/10/30 08:59:40;;;;;;;;;6.75;4.75;;;;;-143.93;100.00;62969.28;5017897;28;45424;-71
2021/10/30 09:02:07;;;;;;;;;5.00;5.00;;;;;-143.93;100.00;62969.28;5014422;28;45501;-72
2021/10/30 09:04:32;;;;;;;;;4.75;4.75;;;;;-143.93;100.00;62969.28;5007819;28;46142;-72
2021/10/30 09:07:00;;;;;;;;;6.25;6.25;;;;;-143.93;100.00;62969.28;5015006;28;45836;-70
2021/10/30 09:09:31;;;;;;;;;5.25;5.25;;;;;-143.93;100.00;62969.28;5024419;28;45383;-71
2021/10/30 09:11:58;;;;;;;;;7.00;6.00;;;;;-143.93;100.00;62969.28;5016710;28;45591;-71
2021/10/30 09:14:27;;;;;;;;;5.00;5.00;;;;;-143.93;100.00;62969.28;5015759;28;45588;-71
2021/10/30 09:17:19;;;;;;;;;5.25;4.00;;;;;-143.93;100.00;62969.28;5013885;28;46173;-71
2021/10/30 09:19:47;;;;;;;;;5.50;5.25;;;;;-143.93;100.00;62969.28;5005631;28;48296;-72
2021/10/30 09:22:13;;;;;;;;;8.50;7.00;;;;;-143.93;100.00;62969.28;5014844;28;47023;-71
2021/10/30 09:25:01;;;;;;;;;8.00;5.00;;;;;-143.93;100.00;62969.28;5013830;28;45674;-71
2021/10/30 09:27:42;;;;;;;;;7.50;6.00;;;;;-143.93;100.00;62969.28;5009045;28;45743;-71
2021/10/30 09:30:08;;;;;;;;;6.25;5.25;;;;;-143.93;100.00;62969.28;5010730;28;45856;-69
2021/10/30 09:32:34;;;;;;;;;4.50;4.50;;;;;-143.93;100.00;62969.28;5017064;28;45527;-69
2021/10/30 09:34:59;;;;;;;;;9.00;7.00;;;;;-143.93;100.00;62969.28;5011206;28;45765;-69
2021/10/30 09:37:24;;;;;;;;;5.75;5.25;;;;;-143.93;100.00;62969.28;5013553;28;45456;-70
2021/10/30 09:40:26;;;;;;;;;3.00;3.00;;;;;-143.93;100.00;62969.28;5011707;28;45347;-70
2021/10/30 09:43:09;;;;;;;;;6.00;5.00;;;;;-143.93;100.00;62969.28;5015168;28;46348;-70
2021/10/30 09:45:40;;;;;;;;;7.50;7.50;;;;;-143.93;100.00;62969.28;5023472;28;45824;-69
2021/10/30 09:48:09;;;;;;;;;5.00;5.00;;;;;-143.93;100.00;62969.28;5001385;28;45718;-70
2021/10/30 09:50:34;;;;;;;;;9.25;6.00;;;;;-143.93;100.00;62969.28;5019277;28;45705;-71
2021/10/30 09:53:33;;;;;;;;;5.50;5.50;;;;;-143.93;100.00;62969.28;5013843;28;46509;-71
2021/10/30 09:56:00;;;;;;;;;7.00;5.50;;;;;-143.93;100.00;62969.28;5016299;28;45494;-69
2021/10/30 09:58:35;;;;;;;;;6.00;5.25;;;;;-143.93;100.00;62969.28;5023129;28;45763;-70
2021/10/30 10:01:15;;;;;;;;;5.25;4.00;;;;;-143.93;100.00;62969.28;5009618;28;45416;-71
2021/10/30 10:03:43;;;;;;;;;5.00;5.00;;;;;-143.93;100.00;62969.28;5021510;28;45702;-70
2021/10/30 10:06:11;;;;;;;;;5.50;5.50;;;;;-143.93;100.00;62969.28;5016005;28;45898;-70
2021/10/30 10:08:41;;;;;;;;;7.75;6.00;;;;;-143.93;100.00;62969.28;5011674;28;45636;-70
2021/10/30 10:11:08;;;;;;;;;6.00;4.00;;;;;-143.93;100.00;62969.28;5022327;28;46128;-72
2021/10/30 10:13:39;;;;;;;;;4.75;4.00;;;;;-143.93;100.00;62969.28;5004307;28;46149;-74
2021/10/30 10:16:08;;;;;;;;;6.00;4.75;;;;;-143.93;100.00;62969.28;5012625;28;45510;-75
2021/10/30 10:18:35;;;;;;;;;5.00;4.00;;;;;-143.93;100.00;62969.28;5013982;28;45482;-73
2021/10/30 10:21:01;;;;;;;;;5.50;4.00;;;;;-143.93;100.00;62969.28;5020791;28;45451;-73
2021/10/30 10:23:26;;;;;;;;;5.25;3.75;;;;;-143.93;100.00;62969.28;5016925;28;45523;-73
2021/10/30 10:25:55;;;;;;;;;9.25;7.00;;;;;-143.93;100.00;62969.28;5011275;28;45770;-73
2021/10/30 10:28:33;;;;;;;;;10.75;10.25;;;;;-143.93;100.00;62969.28;5011734;28;45761;-72
2021/10/30 10:31:23;;;;;;;;;9.50;5.00;;;;;-143.93;100.00;62969.28;5014619;28;45507;-72
2021/10/30 10:34:13;;;;;;;;;6.50;6.50;;;;;-143.93;100.00;62969.28;5016238;28;46475;-71
2021/10/30 10:36:42;;;;;;;;;2.75;1.75;;;;;-143.93;100.00;62969.28;5011433;28;45558;-71
2021/10/30 10:39:15;;;;;;;;;6.25;5.25;;;;;-143.93;100.00;62969.28;5011705;28;45497;-72
2021/10/30 10:41:41;;;;;;;;;8.00;5.00;;;;;-143.93;100.00;62969.28;5017021;28;45503;-71
2021/10/30 10:44:13;;;;;;;;;4.75;4.75;;;;;-143.93;100.00;62969.28;5017816;28;46407;-71
2021/10/30 10:46:47;;;;;;;;;6.25;6.25;;;;;-143.93;100.00;62969.28;5016743;28;45724;-70
2021/10/30 10:49:31;;;;;;;;;4.75;4.00;;;;;-143.93;100.00;62969.28;5014296;28;45538;-70
2021/10/30 10:52:30;;;;;;;;;7.50;4.00;;;;;-143.93;100.00;62969.28;5016511;28;45243;-70
2021/10/30 10:54:55;;;;;;;;;3.50;3.25;;;;;-143.93;100.00;62969.28;5015396;28;46140;-71
2021/10/30 10:57:46;;;;;;;;;4.75;4.75;;;;;-143.93;100.00;62969.28;5016800;28;45299;-72
2021/10/30 11:00:19;;;;;;;;;4.00;4.00;;;;;-143.93;100.00;62969.28;5015748;28;45590;-71
2021/10/30 11:02:50;;;;;;;;;4.50;3.25;;;;;-143.93;100.00;62969.28;5014752;28;45585;-71